sensor_id;sensor_type;location;lat;lon;timestamp;pressure;altitude;pressure_sealevel;temperature;humidity
46722;BME280;32455;43.430;23.136;2023-01-29T00:00:21;98328.78;;;0.91;100.00
46722;BME280;32455;43.430;23.136;2023-01-29T00:03:06;98335.03;;;0.90;100.00
46722;BME280;32455;43.430;23.136;2023-01-29T00:05:52;98340.25;;;0.99;100.00
46722;BME280;32455;43.430;23.136;2023-01-29T00:08:37;98358.81;;;1.08;100.00
46722;BME280;32455;43.430;23.136;2023-01-29T00:11:23;98362.25;;;1.00;100.00
46722;BME280;32455;43.430;23.136;2023-01-29T00:14:09;98358.06;;;0.97;100.00
46722;BME280;32455;43.430;23.136;2023-01-29T00:16:55;98363.88;;;1.01;100.00
46722;BME280;32455;43.430;23.136;2023-01-29T00:19:40;98345.19;;;0.94;100.00
46722;BME280;32455;43.430;23.136;2023-01-29T00:22:25;98363.09;;;1.09;100.00
46722;BME280;32455;43.430;23.136;2023-01-29T00:25:11;98370.53;;;1.05;100.00
46722;BME280;32455;43.430;23.136;2023-01-29T00:27:57;98376.13;;;1.02;100.00
46722;BME280;32455;43.430;23.136;2023-01-29T00:30:43;98384.59;;;1.06;100.00
46722;BME280;32455;43.430;23.136;2023-01-29T00:33:28;98370.19;;;1.00;100.00
46722;BME280;32455;43.430;23.136;2023-01-29T00:36:16;98382.09;;;1.04;100.00
46722;BME280;32455;43.430;23.136;2023-01-29T00:39:02;98390.16;;;0.94;100.00
46722;BME280;32455;43.430;23.136;2023-01-29T00:41:54;98393.69;;;1.03;100.00
46722;BME280;32455;43.430;23.136;2023-01-29T00:44:58;98384.34;;;0.91;100.00
46722;BME280;32455;43.430;23.136;2023-01-29T00:47:43;98393.00;;;1.01;100.00
46722;BME280;32455;43.430;23.136;2023-01-29T00:50:29;98381.00;;;0.89;100.00
46722;BME280;32455;43.430;23.136;2023-01-29T00:53:14;98382.66;;;0.82;100.00
46722;BME280;32455;43.430;23.136;2023-01-29T00:55:59;98385.88;;;0.75;100.00
46722;BME280;32455;43.430;23.136;2023-01-29T00:58:45;98389.34;;;0.76;100.00
46722;BME280;32455;43.430;23.136;2023-01-29T01:01:30;98387.94;;;0.64;100.00
46722;BME280;32455;43.430;23.136;2023-01-29T01:04:34;98398.91;;;0.69;100.00
46722;BME280;32455;43.430;23.136;2023-01-29T01:07:20;98402.75;;;0.74;100.00
46722;BME280;32455;43.430;23.136;2023-01-29T01:10:07;98405.03;;;0.69;100.00
46722;BME280;32455;43.430;23.136;2023-01-29T01:13:13;98408.22;;;0.55;100.00
46722;BME280;32455;43.430;23.136;2023-01-29T01:15:59;98406.09;;;0.59;100.00
46722;BME280;32455;43.430;23.136;2023-01-29T01:18:44;98394.03;;;0.56;100.00
46722;BME280;32455;43.430;23.136;2023-01-29T01:21:29;98412.81;;;0.71;100.00
46722;BME280;32455;43.430;23.136;2023-01-29T01:24:15;98408.63;;;0.68;100.00
46722;BME280;32455;43.430;23.136;2023-01-29T01:27:00;98409.13;;;0.46;100.00
46722;BME280;32455;43.430;23.136;2023-01-29T01:29:45;98422.72;;;0.69;100.00
46722;BME280;32455;43.430;23.136;2023-01-29T01:32:31;98417.75;;;0.48;100.00
46722;BME280;32455;43.430;23.136;2023-01-29T01:35:17;98422.19;;;0.65;100.00
46722;BME280;32455;43.430;23.136;2023-01-29T01:38:02;98406.56;;;0.54;100.00
46722;BME280;32455;43.430;23.136;2023-01-29T01:40:48;98398.69;;;0.62;100.00
46722;BME280;32455;43.430;23.136;2023-01-29T01:43:56;98418.69;;;0.83;100.00
46722;BME280;32455;43.430;23.136;2023-01-29T01:46:42;98421.19;;;0.66;100.00
46722;BME280;32455;43.430;23.136;2023-01-29T01:49:27;98411.91;;;0.62;100.00
46722;BME280;32455;43.430;23.136;2023-01-29T01:52:14;98391.63;;;0.45;100.00
46722;BME280;32455;43.430;23.136;2023-01-29T01:55:01;98423.22;;;0.72;100.00
46722;BME280;32455;43.430;23.136;2023-01-29T01:57:49;98418.91;;;0.71;100.00
46722;BME280;32455;43.430;23.136;2023-01-29T02:00:38;98404.81;;;0.63;100.00
46722;BME280;32455;43.430;23.136;2023-01-29T02:03:24;98407.75;;;0.60;100.00
46722;BME280;32455;43.430;23.136;2023-01-29T02:06:31;98415.47;;;0.53;100.00
46722;BME280;32455;43.430;23.136;2023-01-29T02:09:41;98418.66;;;0.57;100.00
46722;BME280;32455;43.430;23.136;2023-01-29T02:12:30;98425.03;;;0.72;100.00
46722;BME280;32455;43.430;23.136;2023-01-29T02:15:16;98425.91;;;0.81;100.00
46722;BME280;32455;43.430;23.136;2023-01-29T02:18:01;98423.75;;;0.76;100.00
46722;BME280;32455;43.430;23.136;2023-01-29T02:21:00;98428.56;;;0.81;100.00
46722;BME280;32455;43.430;23.136;2023-01-29T02:27:22;98421.66;;;0.62;100.00
46722;BME280;32455;43.430;23.136;2023-01-29T02:30:22;98426.94;;;0.62;100.00
46722;BME280;32455;43.430;23.136;2023-01-29T02:39:16;98435.84;;;0.79;100.00
46722;BME280;32455;43.430;23.136;2023-01-29T02:42:14;98429.97;;;0.67;100.00
46722;BME280;32455;43.430;23.136;2023-01-29T02:45:13;98445.81;;;0.67;100.00
46722;BME280;32455;43.430;23.136;2023-01-29T02:48:01;98439.25;;;0.71;100.00
46722;BME280;32455;43.430;23.136;2023-01-29T02:51:04;98433.97;;;0.71;100.00
46722;BME280;32455;43.430;23.136;2023-01-29T02:57:20;98445.53;;;0.70;100.00
46722;BME280;32455;43.430;23.136;2023-01-29T03:00:15;98449.91;;;0.61;100.00
46722;BME280;32455;43.430;23.136;2023-01-29T03:08:59;98446.00;;;0.65;100.00
46722;BME280;32455;43.430;23.136;2023-01-29T03:11:51;98442.53;;;0.65;100.00
46722;BME280;32455;43.430;23.136;2023-01-29T03:14:38;98435.44;;;0.47;100.00
46722;BME280;32455;43.430;23.136;2023-01-29T03:18:02;98445.06;;;0.74;100.00
46722;BME280;32455;43.430;23.136;2023-01-29T03:20:53;98449.53;;;0.74;100.00
46722;BME280;32455;43.430;23.136;2023-01-29T03:23:42;98446.75;;;0.58;100.00
46722;BME280;32455;43.430;23.136;2023-01-29T03:26:46;98448.63;;;0.65;100.00
46722;BME280;32455;43.430;23.136;2023-01-29T03:29:52;98441.81;;;0.63;100.00
46722;BME280;32455;43.430;23.136;2023-01-29T03:33:01;98454.50;;;0.77;100.00
46722;BME280;32455;43.430;23.136;2023-01-29T03:35:58;98463.34;;;0.68;100.00
46722;BME280;32455;43.430;23.136;2023-01-29T03:38:46;98464.34;;;0.67;100.00
46722;BME280;32455;43.430;23.136;2023-01-29T03:41:42;98451.88;;;0.59;100.00
46722;BME280;32455;43.430;23.136;2023-01-29T03:44:43;98459.13;;;0.57;100.00
46722;BME280;32455;43.430;23.136;2023-01-29T03:53:53;98456.25;;;0.50;100.00
46722;BME280;32455;43.430;23.136;2023-01-29T04:00:39;98442.09;;;0.52;100.00
46722;BME280;32455;43.430;23.136;2023-01-29T04:06:20;98454.91;;;0.64;100.00
46722;BME280;32455;43.430;23.136;2023-01-29T04:09:18;98459.97;;;0.58;100.00
46722;BME280;32455;43.430;23.136;2023-01-29T04:12:10;98456.63;;;0.56;100.00
46722;BME280;32455;43.430;23.136;2023-01-29T04:14:57;98440.03;;;0.45;100.00
46722;BME280;32455;43.430;23.136;2023-01-29T04:17:49;98452.66;;;0.52;100.00
46722;BME280;32455;43.430;23.136;2023-01-29T04:20:37;98455.69;;;0.39;100.00
46722;BME280;32455;43.430;23.136;2023-01-29T04:23:25;98456.78;;;0.54;100.00
46722;BME280;32455;43.430;23.136;2023-01-29T04:32:20;98459.69;;;0.43;100.00
46722;BME280;32455;43.430;23.136;2023-01-29T04:47:34;98464.88;;;0.35;100.00
46722;BME280;32455;43.430;23.136;2023-01-29T04:54:07;98471.66;;;0.37;100.00
46722;BME280;32455;43.430;23.136;2023-01-29T04:59:49;98471.16;;;0.69;100.00
46722;BME280;32455;43.430;23.136;2023-01-29T05:02:40;98477.19;;;0.62;100.00
46722;BME280;32455;43.430;23.136;2023-01-29T05:05:27;98466.25;;;0.57;100.00
46722;BME280;32455;43.430;23.136;2023-01-29T05:08:16;98476.38;;;0.61;100.00
46722;BME280;32455;43.430;23.136;2023-01-29T05:11:02;98469.19;;;0.54;100.00
46722;BME280;32455;43.430;23.136;2023-01-29T05:13:47;98475.22;;;0.64;100.00
46722;BME280;32455;43.430;23.136;2023-01-29T05:16:42;98477.03;;;0.63;100.00
46722;BME280;32455;43.430;23.136;2023-01-29T05:19:28;98472.94;;;0.51;100.00
46722;BME280;32455;43.430;23.136;2023-01-29T05:22:15;98477.19;;;0.62;100.00
46722;BME280;32455;43.430;23.136;2023-01-29T05:25:01;98484.66;;;0.66;100.00
46722;BME280;32455;43.430;23.136;2023-01-29T05:27:48;98465.88;;;0.52;100.00
46722;BME280;32455;43.430;23.136;2023-01-29T05:30:54;98478.56;;;0.66;100.00
46722;BME280;32455;43.430;23.136;2023-01-29T05:33:41;98465.72;;;0.53;100.00
46722;BME280;32455;43.430;23.136;2023-01-29T05:36:26;98488.13;;;0.67;100.00
46722;BME280;32455;43.430;23.136;2023-01-29T05:39:11;98484.91;;;0.73;100.00
46722;BME280;32455;43.430;23.136;2023-01-29T05:41:57;98484.75;;;0.74;100.00
46722;BME280;32455;43.430;23.136;2023-01-29T05:44:43;98492.50;;;0.76;100.00
46722;BME280;32455;43.430;23.136;2023-01-29T05:47:28;98480.66;;;0.62;100.00
46722;BME280;32455;43.430;23.136;2023-01-29T05:50:14;98502.34;;;0.84;100.00
46722;BME280;32455;43.430;23.136;2023-01-29T05:53:00;98496.69;;;0.79;100.00
46722;BME280;32455;43.430;23.136;2023-01-29T05:55:47;98499.41;;;0.69;100.00
46722;BME280;32455;43.430;23.136;2023-01-29T05:58:33;98512.94;;;0.66;100.00
46722;BME280;32455;43.430;23.136;2023-01-29T06:01:21;98512.16;;;0.56;100.00
46722;BME280;32455;43.430;23.136;2023-01-29T06:04:06;98496.97;;;0.40;100.00
46722;BME280;32455;43.430;23.136;2023-01-29T06:06:52;98508.00;;;0.53;100.00
46722;BME280;32455;43.430;23.136;2023-01-29T06:09:36;98490.34;;;0.36;100.00
46722;BME280;32455;43.430;23.136;2023-01-29T06:12:21;98509.47;;;0.47;100.00
46722;BME280;32455;43.430;23.136;2023-01-29T06:15:07;98507.31;;;0.33;100.00
46722;BME280;32455;43.430;23.136;2023-01-29T06:17:53;98535.03;;;0.47;100.00
46722;BME280;32455;43.430;23.136;2023-01-29T06:20:39;98527.25;;;0.45;100.00
46722;BME280;32455;43.430;23.136;2023-01-29T06:23:24;98538.56;;;0.38;100.00
46722;BME280;32455;43.430;23.136;2023-01-29T06:26:13;98546.53;;;0.56;100.00
46722;BME280;32455;43.430;23.136;2023-01-29T06:28:59;98519.41;;;0.54;100.00
46722;BME280;32455;43.430;23.136;2023-01-29T06:31:44;98552.81;;;0.72;100.00
46722;BME280;32455;43.430;23.136;2023-01-29T06:34:29;98549.78;;;0.49;100.00
46722;BME280;32455;43.430;23.136;2023-01-29T06:37:15;98555.00;;;0.59;100.00
46722;BME280;32455;43.430;23.136;2023-01-29T06:40:01;98558.78;;;0.39;100.00
46722;BME280;32455;43.430;23.136;2023-01-29T06:42:48;98554.91;;;0.51;100.00
46722;BME280;32455;43.430;23.136;2023-01-29T06:45:33;98560.16;;;0.61;100.00
46722;BME280;32455;43.430;23.136;2023-01-29T06:48:18;98559.38;;;0.68;100.00
46722;BME280;32455;43.430;23.136;2023-01-29T06:51:05;98572.13;;;0.55;100.00
46722;BME280;32455;43.430;23.136;2023-01-29T06:53:51;98576.56;;;0.64;100.00
46722;BME280;32455;43.430;23.136;2023-01-29T06:56:38;98566.72;;;0.74;100.00
46722;BME280;32455;43.430;23.136;2023-01-29T06:59:24;98571.41;;;0.81;100.00
46722;BME280;32455;43.430;23.136;2023-01-29T07:02:09;98574.22;;;0.79;100.00
46722;BME280;32455;43.430;23.136;2023-01-29T07:04:55;98575.88;;;0.80;100.00
46722;BME280;32455;43.430;23.136;2023-01-29T07:07:40;98584.41;;;0.92;100.00
46722;BME280;32455;43.430;23.136;2023-01-29T07:10:25;98577.00;;;0.95;100.00
46722;BME280;32455;43.430;23.136;2023-01-29T07:13:10;98579.19;;;1.00;100.00
46722;BME280;32455;43.430;23.136;2023-01-29T07:16:00;98582.16;;;0.97;100.00
46722;BME280;32455;43.430;23.136;2023-01-29T07:18:46;98575.84;;;0.98;100.00
46722;BME280;32455;43.430;23.136;2023-01-29T07:21:32;98592.28;;;1.02;100.00
46722;BME280;32455;43.430;23.136;2023-01-29T07:24:17;98579.19;;;1.00;100.00
46722;BME280;32455;43.430;23.136;2023-01-29T07:27:03;98592.34;;;1.10;100.00
46722;BME280;32455;43.430;23.136;2023-01-29T07:29:48;98600.13;;;1.11;100.00
46722;BME280;32455;43.430;23.136;2023-01-29T07:32:33;98584.69;;;1.07;100.00
46722;BME280;32455;43.430;23.136;2023-01-29T07:35:18;98596.19;;;1.15;100.00
46722;BME280;32455;43.430;23.136;2023-01-29T07:38:04;98600.06;;;1.21;100.00
46722;BME280;32455;43.430;23.136;2023-01-29T07:40:52;98595.22;;;1.16;100.00
46722;BME280;32455;43.430;23.136;2023-01-29T07:43:37;98615.78;;;1.22;100.00
46722;BME280;32455;43.430;23.136;2023-01-29T07:46:23;98608.38;;;1.26;100.00
46722;BME280;32455;43.430;23.136;2023-01-29T07:49:09;98608.28;;;1.18;100.00
46722;BME280;32455;43.430;23.136;2023-01-29T07:51:55;98606.97;;;1.40;100.00
46722;BME280;32455;43.430;23.136;2023-01-29T07:54:40;98616.16;;;1.28;100.00
46722;BME280;32455;43.430;23.136;2023-01-29T07:57:25;98615.69;;;1.32;100.00
46722;BME280;32455;43.430;23.136;2023-01-29T08:00:11;98610.78;;;1.19;100.00
46722;BME280;32455;43.430;23.136;2023-01-29T08:03:04;98620.91;;;1.24;100.00
46722;BME280;32455;43.430;23.136;2023-01-29T08:05:50;98621.44;;;1.28;100.00
46722;BME280;32455;43.430;23.136;2023-01-29T08:08:34;98606.56;;;1.09;100.00
46722;BME280;32455;43.430;23.136;2023-01-29T08:11:20;98631.66;;;1.40;100.00
46722;BME280;32455;43.430;23.136;2023-01-29T08:14:06;98621.94;;;1.49;100.00
46722;BME280;32455;43.430;23.136;2023-01-29T08:16:53;98601.84;;;1.38;100.00
46722;BME280;32455;43.430;23.136;2023-01-29T08:19:38;98632.75;;;1.56;100.00
46722;BME280;32455;43.430;23.136;2023-01-29T08:22:24;98628.31;;;1.56;100.00
46722;BME280;32455;43.430;23.136;2023-01-29T08:25:09;98623.66;;;1.58;100.00
46722;BME280;32455;43.430;23.136;2023-01-29T08:27:56;98649.63;;;1.72;100.00
46722;BME280;32455;43.430;23.136;2023-01-29T08:30:41;98622.25;;;1.64;100.00
46722;BME280;32455;43.430;23.136;2023-01-29T08:33:28;98637.50;;;1.70;100.00
46722;BME280;32455;43.430;23.136;2023-01-29T08:36:13;98625.41;;;1.67;100.00
46722;BME280;32455;43.430;23.136;2023-01-29T08:38:59;98642.91;;;1.86;100.00
46722;BME280;32455;43.430;23.136;2023-01-29T08:41:45;98635.78;;;1.87;100.00
46722;BME280;32455;43.430;23.136;2023-01-29T08:44:30;98640.84;;;1.98;100.00
46722;BME280;32455;43.430;23.136;2023-01-29T08:47:16;98645.81;;;1.75;100.00
46722;BME280;32455;43.430;23.136;2023-01-29T08:50:01;98643.31;;;1.73;100.00
46722;BME280;32455;43.430;23.136;2023-01-29T08:52:47;98634.81;;;1.88;100.00
46722;BME280;32455;43.430;23.136;2023-01-29T08:55:35;98652.69;;;2.12;100.00
46722;BME280;32455;43.430;23.136;2023-01-29T08:58:21;98644.59;;;2.21;100.00
46722;BME280;32455;43.430;23.136;2023-01-29T09:01:12;98656.81;;;2.40;100.00
46722;BME280;32455;43.430;23.136;2023-01-29T09:03:57;98655.16;;;2.47;100.00
46722;BME280;32455;43.430;23.136;2023-01-29T09:06:43;98641.69;;;2.33;100.00
46722;BME280;32455;43.430;23.136;2023-01-29T09:09:28;98657.94;;;2.38;100.00
46722;BME280;32455;43.430;23.136;2023-01-29T09:12:14;98656.84;;;2.48;100.00
46722;BME280;32455;43.430;23.136;2023-01-29T09:14:59;98661.16;;;2.49;100.00
46722;BME280;32455;43.430;23.136;2023-01-29T09:17:46;98665.75;;;2.39;100.00
46722;BME280;32455;43.430;23.136;2023-01-29T09:20:33;98665.84;;;2.64;100.00
46722;BME280;32455;43.430;23.136;2023-01-29T09:23:19;98662.28;;;2.89;100.00
46722;BME280;32455;43.430;23.136;2023-01-29T09:26:06;98667.09;;;2.86;100.00
46722;BME280;32455;43.430;23.136;2023-01-29T09:28:52;98664.38;;;2.69;100.00
46722;BME280;32455;43.430;23.136;2023-01-29T09:31:38;98656.41;;;2.61;100.00
46722;BME280;32455;43.430;23.136;2023-01-29T09:34:24;98646.00;;;2.76;100.00
46722;BME280;32455;43.430;23.136;2023-01-29T09:37:09;98648.50;;;2.86;100.00
46722;BME280;32455;43.430;23.136;2023-01-29T09:39:54;98631.13;;;2.99;100.00
46722;BME280;32455;43.430;23.136;2023-01-29T09:42:53;98630.75;;;2.86;100.00
46722;BME280;32455;43.430;23.136;2023-01-29T09:45:54;98642.19;;;2.87;100.00
46722;BME280;32455;43.430;23.136;2023-01-29T09:48:41;98633.41;;;2.86;100.00
46722;BME280;32455;43.430;23.136;2023-01-29T09:51:31;98637.56;;;2.89;100.00
46722;BME280;32455;43.430;23.136;2023-01-29T09:54:23;98638.91;;;2.93;100.00
46722;BME280;32455;43.430;23.136;2023-01-29T09:57:14;98631.41;;;2.80;100.00
46722;BME280;32455;43.430;23.136;2023-01-29T10:00:01;98608.06;;;2.92;100.00
46722;BME280;32455;43.430;23.136;2023-01-29T10:16:50;98607.88;;;2.93;100.00
46722;BME280;32455;43.430;23.136;2023-01-29T10:25:22;98579.53;;;3.02;100.00
46722;BME280;32455;43.430;23.136;2023-01-29T10:28:46;98587.19;;;3.05;100.00
46722;BME280;32455;43.430;23.136;2023-01-29T10:31:38;98574.75;;;3.22;100.00
46722;BME280;32455;43.430;23.136;2023-01-29T10:34:31;98587.03;;;3.39;100.00
46722;BME280;32455;43.430;23.136;2023-01-29T10:37:21;98581.34;;;3.59;100.00
46722;BME280;32455;43.430;23.136;2023-01-29T10:43:21;98591.31;;;3.32;99.39
46722;BME280;32455;43.430;23.136;2023-01-29T10:46:33;98586.81;;;3.08;100.00
46722;BME280;32455;43.430;23.136;2023-01-29T10:56:01;98583.84;;;3.11;99.04
46722;BME280;32455;43.430;23.136;2023-01-29T10:58:54;98564.59;;;3.34;100.00
46722;BME280;32455;43.430;23.136;2023-01-29T11:01:41;98559.78;;;3.29;100.00
46722;BME280;32455;43.430;23.136;2023-01-29T11:04:27;98563.75;;;3.58;100.00
46722;BME280;32455;43.430;23.136;2023-01-29T11:07:15;98548.50;;;3.35;98.88
46722;BME280;32455;43.430;23.136;2023-01-29T11:10:11;98551.66;;;3.47;100.00
46722;BME280;32455;43.430;23.136;2023-01-29T11:12:57;98529.59;;;3.14;100.00
46722;BME280;32455;43.430;23.136;2023-01-29T11:15:43;98525.25;;;3.29;100.00
46722;BME280;32455;43.430;23.136;2023-01-29T11:18:56;98536.69;;;3.30;100.00
46722;BME280;32455;43.430;23.136;2023-01-29T11:21:59;98544.84;;;3.53;100.00
46722;BME280;32455;43.430;23.136;2023-01-29T11:24:45;98544.03;;;3.36;100.00
46722;BME280;32455;43.430;23.136;2023-01-29T11:27:33;98522.59;;;3.29;100.00
46722;BME280;32455;43.430;23.136;2023-01-29T11:30:52;98526.06;;;3.46;100.00
46722;BME280;32455;43.430;23.136;2023-01-29T11:33:38;98530.69;;;3.68;100.00
46722;BME280;32455;43.430;23.136;2023-01-29T11:36:30;98531.66;;;3.67;100.00
46722;BME280;32455;43.430;23.136;2023-01-29T11:39:19;98535.50;;;3.73;100.00
46722;BME280;32455;43.430;23.136;2023-01-29T11:42:08;98520.41;;;3.65;100.00
46722;BME280;32455;43.430;23.136;2023-01-29T11:45:03;98512.22;;;3.75;100.00
46722;BME280;32455;43.430;23.136;2023-01-29T11:47:58;98515.09;;;3.65;100.00
46722;BME280;32455;43.430;23.136;2023-01-29T11:50:50;98512.00;;;3.85;100.00
46722;BME280;32455;43.430;23.136;2023-01-29T11:53:44;98510.53;;;3.90;100.00
46722;BME280;32455;43.430;23.136;2023-01-29T11:56:41;98518.06;;;3.70;100.00
46722;BME280;32455;43.430;23.136;2023-01-29T11:59:43;98506.34;;;3.32;96.64
46722;BME280;32455;43.430;23.136;2023-01-29T12:05:23;98516.84;;;3.81;100.00
46722;BME280;32455;43.430;23.136;2023-01-29T12:08:16;98517.69;;;3.82;98.85
46722;BME280;32455;43.430;23.136;2023-01-29T12:11:22;98514.09;;;3.50;97.62
46722;BME280;32455;43.430;23.136;2023-01-29T12:14:31;98510.25;;;3.77;100.00
46722;BME280;32455;43.430;23.136;2023-01-29T12:17:24;98517.59;;;4.06;95.90
46722;BME280;32455;43.430;23.136;2023-01-29T12:20:17;98521.72;;;4.17;97.88
46722;BME280;32455;43.430;23.136;2023-01-29T12:23:24;98526.78;;;3.95;92.89
46722;BME280;32455;43.430;23.136;2023-01-29T12:26:19;98527.13;;;3.92;96.25
46722;BME280;32455;43.430;23.136;2023-01-29T12:32:52;98516.31;;;3.94;98.79
46722;BME280;32455;43.430;23.136;2023-01-29T12:35:47;98505.38;;;3.81;96.28
46722;BME280;32455;43.430;23.136;2023-01-29T12:38:35;98521.47;;;3.95;100.00
46722;BME280;32455;43.430;23.136;2023-01-29T12:44:19;98519.06;;;3.61;96.77
46722;BME280;32455;43.430;23.136;2023-01-29T12:47:14;98515.41;;;3.70;99.08
46722;BME280;32455;43.430;23.136;2023-01-29T12:50:28;98524.59;;;3.43;95.67
46722;BME280;32455;43.430;23.136;2023-01-29T12:53:26;98520.63;;;3.39;100.00
46722;BME280;32455;43.430;23.136;2023-01-29T12:56:21;98512.16;;;3.36;97.61
46722;BME280;32455;43.430;23.136;2023-01-29T12:59:19;98536.53;;;3.47;97.71
46722;BME280;32455;43.430;23.136;2023-01-29T13:02:46;98531.88;;;3.41;97.27
46722;BME280;32455;43.430;23.136;2023-01-29T13:05:32;98523.72;;;3.51;97.47
46722;BME280;32455;43.430;23.136;2023-01-29T13:11:20;98535.06;;;3.29;97.08
46722;BME280;32455;43.430;23.136;2023-01-29T13:20:12;98514.00;;;3.11;97.38
46722;BME280;32455;43.430;23.136;2023-01-29T13:23:16;98509.50;;;3.36;98.11
46722;BME280;32455;43.430;23.136;2023-01-29T13:26:04;98535.22;;;3.35;96.82
46722;BME280;32455;43.430;23.136;2023-01-29T13:28:50;98532.38;;;3.45;97.92
46722;BME280;32455;43.430;23.136;2023-01-29T13:31:37;98513.81;;;3.37;99.09
46722;BME280;32455;43.430;23.136;2023-01-29T13:37:26;98524.41;;;3.53;100.00
46722;BME280;32455;43.430;23.136;2023-01-29T13:40:24;98542.31;;;3.59;97.88
46722;BME280;32455;43.430;23.136;2023-01-29T13:43:18;98528.56;;;3.47;97.03
46722;BME280;32455;43.430;23.136;2023-01-29T13:46:09;98540.97;;;3.63;99.00
46722;BME280;32455;43.430;23.136;2023-01-29T13:48:55;98523.72;;;3.51;97.70
46722;BME280;32455;43.430;23.136;2023-01-29T13:51:44;98526.44;;;3.26;94.10
46722;BME280;32455;43.430;23.136;2023-01-29T13:54:30;98536.56;;;3.39;97.49
46722;BME280;32455;43.430;23.136;2023-01-29T14:06:10;98527.28;;;3.11;95.49
46722;BME280;32455;43.430;23.136;2023-01-29T14:08:55;98534.56;;;3.33;97.63
46722;BME280;32455;43.430;23.136;2023-01-29T14:11:47;98537.22;;;3.17;95.16
46722;BME280;32455;43.430;23.136;2023-01-29T14:17:32;98555.47;;;3.04;94.77
46722;BME280;32455;43.430;23.136;2023-01-29T14:20:20;98554.97;;;3.08;96.22
46722;BME280;32455;43.430;23.136;2023-01-29T14:23:32;98555.81;;;3.09;96.43
46722;BME280;32455;43.430;23.136;2023-01-29T14:29:29;98557.66;;;3.00;96.39
46722;BME280;32455;43.430;23.136;2023-01-29T14:32:22;98562.47;;;3.05;96.68
46722;BME280;32455;43.430;23.136;2023-01-29T14:35:23;98553.66;;;3.04;96.68
46722;BME280;32455;43.430;23.136;2023-01-29T14:38:12;98560.31;;;3.00;99.02
46722;BME280;32455;43.430;23.136;2023-01-29T14:41:14;98568.25;;;2.92;96.16
46722;BME280;32455;43.430;23.136;2023-01-29T14:53:24;98583.50;;;2.90;98.74
46722;BME280;32455;43.430;23.136;2023-01-29T14:56:32;98567.41;;;2.75;96.53
46722;BME280;32455;43.430;23.136;2023-01-29T14:59:48;98574.16;;;2.61;94.38
46722;BME280;32455;43.430;23.136;2023-01-29T15:02:40;98572.16;;;2.63;98.06
46722;BME280;32455;43.430;23.136;2023-01-29T15:05:30;98580.78;;;2.57;97.33
46722;BME280;32455;43.430;23.136;2023-01-29T15:08:32;98566.91;;;2.80;97.59
46722;BME280;32455;43.430;23.136;2023-01-29T15:11:32;98570.69;;;2.69;99.41
46722;BME280;32455;43.430;23.136;2023-01-29T15:14:23;98572.38;;;2.70;100.00
46722;BME280;32455;43.430;23.136;2023-01-29T15:17:18;98575.47;;;2.57;99.76
46722;BME280;32455;43.430;23.136;2023-01-29T15:23:29;98576.97;;;2.68;96.94
46722;BME280;32455;43.430;23.136;2023-01-29T15:26:22;98559.66;;;2.39;96.92
46722;BME280;32455;43.430;23.136;2023-01-29T15:29:23;98585.09;;;2.58;97.74
46722;BME280;32455;43.430;23.136;2023-01-29T15:32:39;98578.78;;;2.59;97.63
46722;BME280;32455;43.430;23.136;2023-01-29T15:35:33;98570.50;;;2.62;98.84
46722;BME280;32455;43.430;23.136;2023-01-29T15:38:21;98563.31;;;2.38;95.78
46722;BME280;32455;43.430;23.136;2023-01-29T15:41:17;98571.56;;;2.35;97.05
46722;BME280;32455;43.430;23.136;2023-01-29T15:44:13;98566.81;;;2.47;97.36
46722;BME280;32455;43.430;23.136;2023-01-29T15:47:00;98560.34;;;2.41;98.49
46722;BME280;32455;43.430;23.136;2023-01-29T15:49:46;98568.47;;;2.48;100.00
46722;BME280;32455;43.430;23.136;2023-01-29T15:52:33;98577.59;;;2.45;97.76
46722;BME280;32455;43.430;23.136;2023-01-29T15:55:21;98579.06;;;2.48;99.53
46722;BME280;32455;43.430;23.136;2023-01-29T15:58:14;98567.78;;;2.38;99.76
46722;BME280;32455;43.430;23.136;2023-01-29T16:01:01;98571.78;;;2.42;98.58
46722;BME280;32455;43.430;23.136;2023-01-29T16:03:49;98561.47;;;2.39;98.46
46722;BME280;32455;43.430;23.136;2023-01-29T16:06:38;98566.28;;;2.27;98.29
46722;BME280;32455;43.430;23.136;2023-01-29T16:09:25;98572.88;;;2.31;98.36
46722;BME280;32455;43.430;23.136;2023-01-29T16:12:11;98567.75;;;2.30;97.57
46722;BME280;32455;43.430;23.136;2023-01-29T16:14:57;98575.19;;;2.26;97.84
46722;BME280;32455;43.430;23.136;2023-01-29T16:17:43;98584.97;;;2.25;100.00
46722;BME280;32455;43.430;23.136;2023-01-29T16:20:39;98587.97;;;2.31;99.96
46722;BME280;32455;43.430;23.136;2023-01-29T16:23:27;98577.47;;;2.13;100.00
46722;BME280;32455;43.430;23.136;2023-01-29T16:26:35;98594.22;;;2.21;96.16
46722;BME280;32455;43.430;23.136;2023-01-29T16:29:27;98586.53;;;2.36;98.93
46722;BME280;32455;43.430;23.136;2023-01-29T16:32:14;98587.75;;;2.16;97.62
46722;BME280;32455;43.430;23.136;2023-01-29T16:35:00;98577.06;;;2.34;97.26
46722;BME280;32455;43.430;23.136;2023-01-29T16:37:47;98586.28;;;2.21;96.77
46722;BME280;32455;43.430;23.136;2023-01-29T16:40:35;98576.28;;;2.07;98.52
46722;BME280;32455;43.430;23.136;2023-01-29T16:52:23;98593.22;;;2.22;98.51
46722;BME280;32455;43.430;23.136;2023-01-29T16:58:02;98598.84;;;2.11;98.04
46722;BME280;32455;43.430;23.136;2023-01-29T17:00:54;98594.06;;;2.15;97.91
46722;BME280;32455;43.430;23.136;2023-01-29T17:03:41;98585.94;;;2.16;100.00
46722;BME280;32455;43.430;23.136;2023-01-29T17:06:28;98584.94;;;2.17;98.01
46722;BME280;32455;43.430;23.136;2023-01-29T17:09:20;98587.75;;;2.16;98.24
46722;BME280;32455;43.430;23.136;2023-01-29T17:12:15;98584.44;;;2.22;96.62
46722;BME280;32455;43.430;23.136;2023-01-29T17:15:20;98587.66;;;2.34;95.29
46722;BME280;32455;43.430;23.136;2023-01-29T17:18:19;98561.56;;;2.13;96.69
46722;BME280;32455;43.430;23.136;2023-01-29T17:21:05;98583.00;;;2.28;97.72